createdAt,value
2023-04-29T00:03:26.033Z,1.80
2023-04-29T00:06:38.627Z,1.77
2023-04-29T00:09:48.974Z,2.05
2023-04-29T00:13:00.100Z,2.05
2023-04-29T00:16:11.563Z,2.10
2023-04-29T00:19:24.288Z,1.92
2023-04-29T00:22:35.447Z,1.60
2023-04-29T00:25:48.516Z,1.90
2023-04-29T00:32:14.262Z,1.77
2023-04-29T00:35:27.920Z,1.35
2023-04-29T00:38:41.419Z,1.52
2023-04-29T00:41:54.210Z,1.55
2023-04-29T00:45:08.273Z,1.72
2023-04-29T00:48:19.570Z,1.37
2023-04-29T00:51:30.698Z,1.82
2023-04-29T00:54:44.362Z,1.52
2023-04-29T00:57:56.292Z,1.65
2023-04-29T01:01:08.401Z,1.75
2023-04-29T01:04:20.413Z,2.08
2023-04-29T01:07:34.272Z,1.70
2023-04-29T01:10:50.546Z,1.45
2023-04-29T01:14:04.305Z,1.42
2023-04-29T01:17:14.616Z,1.47
2023-04-29T01:20:29.218Z,1.62
2023-04-29T01:23:41.010Z,1.25
2023-04-29T01:26:55.913Z,1.62
2023-04-29T01:30:09.385Z,1.42
2023-04-29T01:33:23.576Z,1.55
2023-04-29T01:36:39.316Z,2.25
2023-04-29T01:39:51.955Z,1.62
2023-04-29T01:43:05.540Z,1.70
2023-04-29T01:46:18.963Z,1.30
2023-04-29T01:49:31.583Z,1.75
2023-04-29T01:52:43.845Z,2.22
2023-04-29T01:55:54.257Z,2.22
2023-04-29T01:59:09.818Z,1.30
2023-04-29T02:02:24.054Z,1.50
2023-04-29T02:05:34.824Z,1.72
2023-04-29T02:08:46.855Z,1.22
2023-04-29T02:11:59.171Z,1.40
2023-04-29T02:15:14.544Z,1.73
2023-04-29T02:18:29.554Z,1.47
2023-04-29T02:21:40.888Z,1.45
2023-04-29T02:24:48.506Z,1.80
2023-04-29T02:28:03.727Z,1.67
2023-04-29T02:31:16.809Z,1.35
2023-04-29T02:34:28.594Z,2.35
2023-04-29T02:37:40.536Z,1.50
2023-04-29T02:40:50.621Z,1.62
2023-04-29T02:44:03.806Z,1.20
2023-04-29T02:50:27.229Z,2.33
2023-04-29T02:53:39.917Z,1.75
2023-04-29T02:56:55.521Z,1.37
2023-04-29T03:00:06.773Z,1.32
2023-04-29T03:03:20.257Z,1.25
2023-04-29T03:06:28.847Z,1.42
2023-04-29T03:09:42.693Z,1.65
2023-04-29T03:12:56.015Z,2.00
2023-04-29T03:16:04.908Z,1.65
2023-04-29T03:19:17.050Z,1.60
2023-04-29T03:22:30.299Z,1.22
2023-04-29T03:25:43.666Z,1.50
2023-04-29T03:32:04.501Z,1.37
2023-04-29T03:35:15.988Z,1.30
2023-04-29T03:38:29.461Z,1.65
2023-04-29T03:41:41.619Z,1.42
2023-04-29T03:44:52.489Z,1.60
2023-04-29T03:48:01.128Z,1.52
2023-04-29T03:51:13.987Z,1.30
2023-04-29T03:54:27.552Z,1.07
2023-04-29T03:57:40.378Z,1.32
2023-04-29T04:00:51.560Z,1.57
2023-04-29T04:04:04.355Z,1.32
2023-04-29T04:07:15.437Z,1.32
2023-04-29T04:10:30.961Z,1.57
2023-04-29T04:13:43.509Z,1.00
2023-04-29T04:16:54.945Z,1.00
2023-04-29T04:20:06.048Z,1.00
2023-04-29T04:23:17.661Z,1.67
2023-04-29T04:26:30.365Z,1.15
2023-04-29T04:29:43.482Z,1.10
2023-04-29T04:32:52.430Z,1.37
2023-04-29T04:36:03.213Z,1.65
2023-04-29T04:39:15.345Z,1.10
2023-04-29T04:42:27.619Z,1.27
2023-04-29T04:45:41.193Z,1.57
2023-04-29T04:48:52.594Z,1.87
2023-04-29T04:52:03.732Z,1.37
2023-04-29T04:55:15.126Z,1.42
2023-04-29T04:58:28.075Z,1.27
2023-04-29T05:01:36.766Z,1.42
2023-04-29T05:04:48.936Z,1.20
2023-04-29T05:07:59.142Z,1.92
2023-04-29T05:11:12.376Z,1.72
2023-04-29T05:17:35.107Z,1.25
2023-04-29T05:20:48.144Z,1.82
2023-04-29T05:23:57.993Z,1.07
2023-04-29T05:27:09.628Z,1.30
2023-04-29T05:30:22.373Z,2.12
2023-04-29T05:33:35.737Z,1.65
2023-04-29T05:39:53.583Z,1.40
2023-04-29T05:43:03.888Z,1.80
2023-04-29T05:46:18.225Z,2.33
2023-04-29T05:49:30.635Z,2.00
2023-04-29T05:52:43.965Z,2.03
2023-04-29T05:55:56.665Z,2.55
2023-04-29T05:59:10.825Z,1.72
2023-04-29T06:02:20.417Z,2.77
2023-04-29T06:05:31.984Z,2.55
2023-04-29T06:08:45.310Z,2.72
2023-04-29T06:11:57.268Z,2.17
2023-04-29T06:15:12.953Z,2.72
2023-04-29T06:18:22.358Z,2.10
2023-04-29T06:21:30.443Z,2.98
2023-04-29T06:24:44.922Z,2.58
2023-04-29T06:27:54.654Z,2.50
2023-04-29T06:31:06.516Z,2.17
2023-04-29T06:34:19.254Z,1.82
2023-04-29T06:37:31.613Z,1.72
2023-04-29T06:40:42.075Z,2.23
2023-04-29T06:43:54.116Z,1.62
2023-04-29T06:47:03.979Z,1.85
2023-04-29T06:50:19.923Z,1.27
2023-04-29T06:53:31.662Z,1.75
2023-04-29T06:56:43.179Z,1.47
2023-04-29T06:59:54.426Z,1.45
2023-04-29T07:03:06.006Z,1.77
2023-04-29T07:06:16.304Z,1.65
2023-04-29T07:09:29.841Z,1.10
2023-04-29T07:12:40.035Z,1.80
2023-04-29T07:15:50.855Z,1.42
2023-04-29T07:19:02.639Z,1.00
2023-04-29T07:22:14.846Z,1.77
2023-04-29T07:25:22.256Z,1.57
2023-04-29T07:28:33.416Z,1.50
2023-04-29T07:31:43.033Z,1.87
2023-04-29T07:34:54.040Z,1.02
2023-04-29T07:38:06.976Z,2.00
2023-04-29T07:41:22.140Z,1.32
2023-04-29T07:44:33.614Z,0.95
2023-04-29T07:47:42.313Z,1.47
2023-04-29T07:50:54.314Z,1.30
2023-04-29T07:54:07.271Z,1.62
2023-04-29T07:57:24.405Z,1.50
2023-04-29T08:00:37.760Z,1.57
2023-04-29T08:03:52.503Z,1.15
2023-04-29T08:07:08.384Z,1.37
2023-04-29T08:10:20.281Z,0.95
2023-04-29T08:13:31.746Z,1.70
2023-04-29T08:16:43.296Z,0.90
2023-04-29T08:19:53.842Z,0.85
2023-04-29T08:23:06.614Z,1.12
2023-04-29T08:26:18.481Z,1.50
2023-04-29T08:29:29.572Z,1.70
2023-04-29T08:32:41.721Z,1.25
2023-04-29T08:35:52.579Z,1.00
2023-04-29T08:39:03.032Z,1.00
2023-04-29T08:42:17.433Z,1.22
2023-04-29T08:45:27.370Z,1.35
2023-04-29T08:48:36.764Z,1.17
2023-04-29T08:51:47.014Z,1.10
2023-04-29T08:55:00.128Z,1.22
2023-04-29T08:58:10.961Z,0.88
2023-04-29T09:01:24.466Z,1.35
2023-04-29T09:04:41.301Z,1.20
2023-04-29T09:07:53.755Z,1.22
2023-04-29T09:11:02.448Z,1.00
2023-04-29T09:14:15.422Z,1.35
2023-04-29T09:17:26.602Z,1.00
2023-04-29T09:20:39.061Z,1.10
2023-04-29T09:23:52.113Z,1.23
2023-04-29T09:27:03.093Z,1.62
2023-04-29T09:30:15.652Z,0.60
2023-04-29T09:33:26.106Z,1.00
2023-04-29T09:36:55.919Z,1.00
2023-04-29T09:40:11.753Z,1.25
2023-04-29T09:43:20.026Z,0.68
2023-04-29T09:46:33.326Z,0.98
2023-04-29T09:52:57.708Z,1.27
2023-04-29T09:56:08.591Z,1.10
2023-04-29T09:59:21.166Z,1.40
2023-04-29T10:02:31.443Z,1.22
2023-04-29T10:05:43.575Z,0.93
2023-04-29T10:08:56.723Z,0.80
2023-04-29T10:12:08.426Z,0.70
2023-04-29T10:15:22.913Z,0.70
2023-04-29T10:18:37.847Z,1.17
2023-04-29T10:21:51.180Z,1.02
2023-04-29T10:25:02.632Z,0.82
2023-04-29T10:28:10.400Z,1.02
2023-04-29T10:31:22.045Z,1.12
2023-04-29T10:34:35.280Z,1.12
2023-04-29T10:37:43.109Z,0.90
2023-04-29T10:40:57.108Z,0.78
2023-04-29T10:44:06.997Z,0.85
2023-04-29T10:47:30.677Z,0.90
2023-04-29T10:50:42.865Z,0.90
2023-04-29T10:54:10.899Z,1.00
2023-04-29T10:57:31.110Z,1.02
2023-04-29T11:00:41.305Z,0.78
2023-04-29T11:04:13.295Z,1.00
2023-04-29T11:07:34.425Z,0.80
2023-04-29T11:10:45.684Z,0.93
2023-04-29T11:13:57.595Z,0.50
2023-04-29T11:17:08.707Z,0.72
2023-04-29T11:20:19.782Z,0.60
2023-04-29T11:23:34.143Z,0.70
2023-04-29T11:26:46.789Z,0.82
2023-04-29T11:30:00.311Z,0.85
2023-04-29T11:33:11.537Z,1.20
2023-04-29T11:36:25.142Z,0.80
2023-04-29T11:39:35.753Z,1.00
2023-04-29T11:42:50.532Z,0.70
2023-04-29T11:46:02.231Z,1.00
2023-04-29T11:49:13.328Z,0.78
2023-04-29T11:52:23.473Z,0.60
2023-04-29T11:55:31.873Z,0.75
2023-04-29T11:58:47.070Z,0.60
2023-04-29T12:01:59.271Z,0.50
2023-04-29T12:05:17.820Z,0.72
2023-04-29T12:08:30.502Z,0.50
2023-04-29T12:11:41.857Z,0.80
2023-04-29T12:14:55.135Z,0.70
2023-04-29T12:18:07.629Z,1.35
2023-04-29T12:21:18.910Z,0.70
2023-04-29T12:24:31.852Z,0.80
2023-04-29T12:27:42.414Z,1.00
2023-04-29T12:30:52.879Z,1.20
2023-04-29T12:34:02.523Z,1.55
2023-04-29T12:37:13.716Z,0.80
2023-04-29T12:40:25.335Z,1.12
2023-04-29T12:43:35.916Z,0.75
2023-04-29T12:46:46.599Z,0.57
2023-04-29T12:49:58.825Z,0.82
2023-04-29T12:53:07.077Z,1.02
2023-04-29T12:56:22.400Z,0.93
2023-04-29T12:59:35.427Z,0.70
2023-04-29T13:02:49.601Z,0.70
2023-04-29T13:06:01.990Z,0.60
2023-04-29T13:09:18.892Z,1.03
2023-04-29T13:12:27.116Z,0.70
2023-04-29T13:15:39.269Z,0.62
2023-04-29T13:19:08.255Z,0.42
2023-04-29T13:25:13.022Z,0.50
2023-04-29T13:28:24.611Z,0.90
2023-04-29T13:31:36.956Z,0.70
2023-04-29T13:34:49.575Z,0.80
2023-04-29T13:38:04.397Z,0.98
2023-04-29T13:41:20.349Z,0.72
2023-04-29T13:44:35.786Z,0.50
2023-04-29T13:47:57.583Z,0.60
2023-04-29T13:54:37.343Z,0.85
2023-04-29T13:58:03.009Z,0.40
2023-04-29T14:00:55.082Z,0.75
2023-04-29T14:03:39.331Z,1.05
2023-04-29T14:06:51.826Z,0.80
2023-04-29T14:09:59.729Z,0.70
2023-04-29T14:13:11.289Z,0.60
2023-04-29T14:16:23.057Z,0.50
2023-04-29T14:19:36.212Z,0.60
2023-04-29T14:22:49.898Z,0.85
2023-04-29T14:29:14.114Z,0.40
2023-04-29T14:32:21.744Z,0.70
2023-04-29T14:35:33.559Z,0.50
2023-04-29T14:38:46.302Z,0.98
2023-04-29T14:41:58.721Z,0.50
2023-04-29T14:45:11.915Z,0.40
2023-04-29T14:51:30.157Z,0.82
2023-04-29T14:54:44.650Z,0.68
2023-04-29T14:57:53.872Z,0.80
2023-04-29T15:01:08.456Z,0.40
2023-04-29T15:04:21.442Z,0.68
2023-04-29T15:07:34.234Z,0.70
2023-04-29T15:10:44.928Z,0.60
2023-04-29T15:13:55.380Z,0.60
2023-04-29T15:17:05.383Z,0.60
2023-04-29T15:20:18.599Z,0.40
2023-04-29T15:26:39.992Z,0.70
2023-04-29T15:29:51.602Z,0.65
2023-04-29T15:33:02.090Z,0.85
2023-04-29T15:36:13.869Z,0.53
2023-04-29T15:39:24.356Z,0.40
2023-04-29T15:42:37.063Z,0.40
2023-04-29T15:45:46.023Z,0.45
2023-04-29T15:48:57.946Z,0.50
2023-04-29T15:52:07.238Z,0.65
2023-04-29T15:55:18.895Z,0.47
2023-04-29T15:58:32.591Z,0.65
2023-04-29T16:01:45.016Z,0.60
2023-04-29T16:04:56.645Z,0.47
2023-04-29T16:08:08.451Z,0.50
2023-04-29T16:11:23.936Z,0.40
2023-04-29T16:14:32.826Z,0.40
2023-04-29T16:17:45.567Z,0.40
2023-04-29T16:20:58.205Z,0.70
2023-04-29T16:24:09.622Z,0.42
2023-04-29T16:27:18.299Z,0.40
2023-04-29T16:30:31.852Z,0.47
2023-04-29T16:33:40.584Z,0.68
2023-04-29T16:36:54.193Z,1.05
2023-04-29T16:40:07.138Z,1.10
2023-04-29T16:43:16.595Z,1.47
2023-04-29T16:46:29.089Z,0.90
2023-04-29T16:49:40.157Z,0.50
2023-04-29T16:52:53.230Z,0.98
2023-04-29T16:56:05.929Z,0.70
2023-04-29T16:59:18.664Z,0.50
2023-04-29T17:02:29.645Z,0.50
2023-04-29T17:05:39.576Z,0.72
2023-04-29T17:08:51.663Z,0.85
2023-04-29T17:12:05.026Z,0.40
2023-04-29T17:18:23.088Z,0.93
2023-04-29T17:21:35.377Z,0.78
2023-04-29T17:24:45.441Z,0.90
2023-04-29T17:27:57.133Z,0.50
2023-04-29T17:31:09.444Z,0.47
2023-04-29T17:34:25.338Z,0.73
2023-04-29T17:37:36.283Z,0.65
2023-04-29T17:40:46.451Z,0.88
2023-04-29T17:43:56.036Z,0.40
2023-04-29T17:47:08.865Z,0.80
2023-04-29T17:50:17.647Z,0.78
2023-04-29T17:53:30.173Z,1.45
2023-04-29T17:56:42.987Z,1.62
2023-04-29T17:59:57.756Z,1.10
2023-04-29T18:03:10.625Z,1.77
2023-04-29T18:06:22.727Z,1.22
2023-04-29T18:09:36.619Z,29.02
2023-04-29T18:12:49.474Z,121.80
2023-04-29T18:15:58.363Z,131.35
2023-04-29T18:19:12.395Z,103.78
2023-04-29T18:22:22.171Z,83.15
2023-04-29T18:25:35.132Z,69.47
2023-04-29T18:28:45.681Z,67.32
2023-04-29T18:31:56.442Z,58.02
2023-04-29T18:35:08.513Z,52.43
2023-04-29T18:38:20.784Z,44.58
2023-04-29T18:41:29.883Z,42.70
2023-04-29T18:44:42.791Z,38.80
2023-04-29T18:47:55.626Z,32.67
2023-04-29T18:51:06.567Z,31.90
2023-04-29T18:54:20.078Z,26.50
2023-04-29T18:57:30.126Z,24.95
2023-04-29T19:03:57.961Z,21.37
2023-04-29T19:07:11.169Z,21.85
2023-04-29T19:10:22.310Z,17.98
2023-04-29T19:13:32.296Z,19.90
2023-04-29T19:16:45.004Z,18.87
2023-04-29T19:19:58.693Z,16.30
2023-04-29T19:23:13.161Z,15.55
2023-04-29T19:26:24.788Z,15.95
2023-04-29T19:29:38.142Z,14.90
2023-04-29T19:32:50.895Z,15.32
2023-04-29T19:36:04.204Z,13.03
2023-04-29T19:39:19.059Z,12.07
2023-04-29T19:42:30.359Z,11.83
2023-04-29T19:45:40.003Z,9.78
2023-04-29T19:48:50.274Z,10.53
2023-04-29T19:51:58.796Z,10.68
2023-04-29T19:55:10.556Z,10.53
2023-04-29T19:58:23.936Z,10.68
2023-04-29T20:01:32.056Z,7.97
2023-04-29T20:04:43.730Z,7.03
2023-04-29T20:07:54.292Z,6.37
2023-04-29T20:11:06.404Z,8.15
2023-04-29T20:14:21.911Z,7.62
2023-04-29T20:17:30.865Z,6.28
2023-04-29T20:20:43.386Z,6.10
2023-04-29T20:23:55.203Z,5.15
2023-04-29T20:27:06.616Z,4.90
2023-04-29T20:30:16.305Z,6.03
2023-04-29T20:33:28.820Z,5.28
2023-04-29T20:36:42.779Z,5.25
2023-04-29T20:39:54.526Z,6.05
2023-04-29T20:43:05.408Z,4.87
2023-04-29T20:46:16.642Z,5.35
2023-04-29T20:49:27.863Z,4.35
2023-04-29T20:52:36.360Z,5.45
2023-04-29T20:55:47.012Z,4.78
2023-04-29T20:59:01.955Z,4.22
2023-04-29T21:02:13.023Z,4.53
2023-04-29T21:05:25.613Z,4.28
2023-04-29T21:08:37.328Z,3.87
2023-04-29T21:11:50.744Z,3.52
2023-04-29T21:14:59.603Z,4.03
2023-04-29T21:18:09.952Z,4.20
2023-04-29T21:21:24.169Z,3.65
2023-04-29T21:24:36.465Z,3.83
2023-04-29T21:27:50.159Z,2.93
2023-04-29T21:31:03.427Z,3.83
2023-04-29T21:37:21.920Z,3.62
2023-04-29T21:40:35.736Z,3.00
2023-04-29T21:43:45.364Z,2.42
2023-04-29T21:46:57.015Z,2.12
2023-04-29T21:50:07.439Z,2.62
2023-04-29T21:53:21.396Z,3.12
2023-04-29T21:56:33.455Z,2.62
2023-04-29T21:59:45.306Z,3.50
2023-04-29T22:02:56.539Z,2.08
2023-04-29T22:06:09.328Z,3.20
2023-04-29T22:09:22.676Z,2.25
2023-04-29T22:12:35.891Z,3.55
2023-04-29T22:18:54.113Z,2.40
2023-04-29T22:22:04.750Z,2.85
2023-04-29T22:25:23.938Z,2.17
2023-04-29T22:28:35.875Z,2.67
2023-04-29T22:31:47.104Z,2.08
2023-04-29T22:35:01.149Z,3.20
2023-04-29T22:38:13.229Z,2.17
2023-04-29T22:41:22.781Z,2.10
2023-04-29T22:44:38.196Z,2.15
2023-04-29T22:47:50.643Z,2.08
2023-04-29T22:51:00.965Z,2.10
2023-04-29T22:54:13.656Z,2.47
2023-04-29T22:57:22.222Z,1.92
2023-04-29T23:00:37.002Z,2.72
2023-04-29T23:03:47.571Z,2.80
2023-04-29T23:06:59.192Z,1.37
2023-04-29T23:10:11.660Z,2.10
2023-04-29T23:13:22.111Z,1.87
2023-04-29T23:16:35.484Z,1.70
2023-04-29T23:19:47.934Z,1.52
2023-04-29T23:22:57.369Z,1.50
2023-04-29T23:26:07.587Z,2.83
2023-04-29T23:29:19.918Z,2.22
2023-04-29T23:32:29.848Z,1.80
2023-04-29T23:35:44.071Z,2.77
2023-04-29T23:38:53.984Z,3.15
2023-04-29T23:42:04.928Z,2.05
2023-04-29T23:45:16.335Z,2.45
2023-04-29T23:48:30.577Z,1.70
2023-04-29T23:51:42.207Z,2.25
2023-04-29T23:54:54.328Z,1.92
2023-04-29T23:58:05.619Z,1.90
